Airfield :
LOGIN :

Register | Disclaimer

   EN    FR    IT 

 










Legend :    VFR   Marginal VFR   IFR   Intensive IFR   Very Intensive IFR
Visi :
Ceiling :
>= 8 km
>= 3000ft
5 to 8 km
1000 to 3000 ft
1500m to 5 km
500 to 1000 ft
800 to 1500m
200 to 500 ft
< 800m
< 200 ft
Symbols :   Thunderstorms  Fog  Heavy snow  Heavy precipitations  Wind > 20 kt
SIGMETs :     Misc.  Thunderstorms  Icing  Turbulence  Mountain Waves  Volcanic Ashes






- Airport Elevation : 32 ft
- IATA code : LKZ


EGUL - RAF Lakenheath

CURRENT METAR :
  • 211756Z 27006KT 9999 CLR 06/M05 A2995 RMK AO2A SLP146 T00581052 10110 20056 52023 $

EXPIRED METARs :
  • 211656Z 27008KT 9999 CLR 07/M06 A2993 RMK AO2A SLPNO T00691058 $
  • 211556Z 30005KT 9999 CLR 10/M07 A2991 RMK AO2A SLPNO T00971071 $

TAF TAF EGUL
Valid from the 21 at 13:00 until the 22 at 19:00 UTC


211300Z 2113/2219 31012G18KT 9999 FEW025 QNH2979INS
BECMG 2115/2116 28012KT 9999 SKC QNH2988INS
BECMG 2121/2122 27010G15KT 9999 SCT030 QNH2998INS
BECMG 2207/2208 26015G25KT 9999 BKN020 QNH3003INS
BECMG 2215/2216 27010G15KT 9999 SCT020 BKN050 QNH3011INS TX12/2213Z TN05/2205Z



MET'MAP, your aeronautical weather chart ! - Copyright ORBIFLY December 2007 - Disclaimer

ORBIFLY MET'MAP TEAM :

Programming & Development : Alexandra Zaïnal
Concept & original design : Baudouin d'Aumeries
Assistance for programming : Marc-Olivier Méhu
Technical & hardware support : Manuel Goepfert

Contact : metmap@orbifly.com




SOURCES & CREDITS :

   NOAA